Sandringham, United Kingdom
Current Conditions -  °F | °C
As of 1:50 AM on Thursday 23 Oct 2014 (Local Time) from EGYM Reporting Station
Broken Clouds Broken Clouds  
Wind Chill:   Ceiling: 14000
Heat Index:   Visibility: 6mi
Dew Point:   Wind: 9mph
Humidity: 93%   Direction: 200°SSW
Pressure: 30.12"   Gusts: NA
Location:  52.82°N, 0.5°E
Report Text: EGYM 230050Z AUTO 20008KT 9999 FEW029/// BKN140/// 09/08 Q1020
Loading
Personal Weather Stations






























Interactive Weather Map
Tropical Storm Tracking
New forecast layout! Learn more

10-Day Weather Forecast

Advertisements
Track Severe Weather on mobile